Denny Creek, Washington
Current Conditions -  °F | °C
As of 4:53 AM on Tuesday 21 Oct 2014 (Local Time) from KRNT Reporting Station
Overcast Overcast  
Wind Chill: 53°   Ceiling: 6000
Heat Index: 53°   Visibility: 10mi
Dew Point: 53°   Wind: 0mph
Humidity: 100%   Direction: NA
Pressure: 29.84"   Gusts: NA
Location:  47.4594°N, 121.612°W
Report Text: KRNT 211153Z AUTO 00000KT 10SM FEW031 OVC060 12/12 A2984 RMK AO2 RAE53 SLP108 P0001 60006 70025 T01170117 10128 20117 53004
Loading
Personal Weather Stations






























Interactive Weather Map
Tropical Storm Tracking
New forecast layout! Learn more

10-Day Weather Forecast

Advertisements
Track Severe Weather on mobile